createdAt,value
2017-03-27T00:00:55.736Z,0
2017-03-27T00:02:06.008Z,0
2017-03-27T00:03:16.278Z,0
2017-03-27T00:04:26.553Z,0
2017-03-27T00:05:36.809Z,0
2017-03-27T00:06:46.762Z,0
2017-03-27T00:07:56.708Z,0
2017-03-27T00:09:06.976Z,0
2017-03-27T00:10:17.237Z,0
2017-03-27T00:11:27.180Z,0
2017-03-27T00:12:37.440Z,0
2017-03-27T00:13:47.703Z,0
2017-03-27T00:14:57.972Z,0
2017-03-27T00:16:08.241Z,0
2017-03-27T00:17:18.510Z,0
2017-03-27T00:18:28.786Z,0
2017-03-27T00:19:39.052Z,0
2017-03-27T00:20:49.009Z,0
2017-03-27T00:21:59.304Z,0
2017-03-27T00:23:09.255Z,0
2017-03-27T00:24:19.531Z,0
2017-03-27T00:25:29.789Z,0
2017-03-27T00:26:40.050Z,0
2017-03-27T00:27:49.995Z,0
2017-03-27T00:28:59.948Z,0
2017-03-27T00:30:09.901Z,0
2017-03-27T00:31:20.159Z,0
2017-03-27T00:32:30.432Z,0
2017-03-27T00:33:40.376Z,0
2017-03-27T00:34:50.668Z,0
2017-03-27T00:36:00.612Z,0
2017-03-27T00:37:10.249Z,0
2017-03-27T00:38:20.514Z,0
2017-03-27T00:39:30.779Z,0
2017-03-27T00:40:41.045Z,0
2017-03-27T00:41:51.306Z,0
2017-03-27T00:43:01.257Z,0
2017-03-27T00:44:11.239Z,0
2017-03-27T00:45:21.513Z,0
2017-03-27T00:46:31.464Z,0
2017-03-27T00:47:41.728Z,0
2017-03-27T00:48:51.995Z,0
2017-03-27T00:50:02.266Z,0
2017-03-27T00:51:12.222Z,0
2017-03-27T00:52:22.486Z,0
2017-03-27T00:53:32.754Z,0
2017-03-27T00:54:43.021Z,0
2017-03-27T00:55:53.279Z,0
2017-03-27T00:57:03.569Z,0
2017-03-27T00:58:13.830Z,0
2017-03-27T00:59:23.784Z,0
2017-03-27T01:00:34.046Z,0
2017-03-27T01:01:43.986Z,0
2017-03-27T01:02:54.261Z,0
2017-03-27T01:04:04.545Z,0
2017-03-27T01:05:14.497Z,0
2017-03-27T01:06:24.762Z,0
2017-03-27T01:07:35.020Z,0
2017-03-27T01:08:44.979Z,0
2017-03-27T01:09:55.248Z,0
2017-03-27T01:11:05.511Z,0
2017-03-27T01:12:15.779Z,0
2017-03-27T01:13:25.735Z,0
2017-03-27T01:14:36.026Z,0
2017-03-27T01:15:45.665Z,0
2017-03-27T01:16:55.925Z,0
2017-03-27T01:18:06.185Z,0
2017-03-27T01:19:16.448Z,0
2017-03-27T01:20:26.715Z,0
2017-03-27T01:21:36.972Z,0
2017-03-27T01:22:46.919Z,0
2017-03-27T01:23:57.192Z,0
2017-03-27T01:25:07.451Z,0
2017-03-27T01:26:17.710Z,0
2017-03-27T01:27:28.007Z,0
2017-03-27T01:28:37.651Z,0
2017-03-27T01:29:47.914Z,0
2017-03-27T01:30:58.183Z,0
2017-03-27T01:32:08.128Z,0
2017-03-27T01:33:18.390Z,0
2017-03-27T01:34:28.028Z,0
2017-03-27T01:35:38.290Z,0
2017-03-27T01:36:48.554Z,0
2017-03-27T01:37:59.116Z,0
2017-03-27T01:39:09.380Z,0
2017-03-27T01:40:19.344Z,0
2017-03-27T01:41:28.979Z,0
2017-03-27T01:42:39.244Z,0
2017-03-27T01:43:49.509Z,0
2017-03-27T01:44:59.456Z,0
2017-03-27T01:46:09.422Z,0
2017-03-27T01:47:19.690Z,0
2017-03-27T01:48:29.991Z,0
2017-03-27T01:49:40.247Z,0
2017-03-27T01:50:50.188Z,0
2017-03-27T01:52:00.456Z,0
2017-03-27T01:53:10.720Z,0
2017-03-27T01:54:20.992Z,0
2017-03-27T01:55:30.945Z,0
2017-03-27T01:56:40.584Z,0
2017-03-27T01:57:50.874Z,0
2017-03-27T01:59:01.152Z,0
2017-03-27T02:00:10.784Z,0
2017-03-27T02:01:20.732Z,0
2017-03-27T02:02:31.001Z,0
2017-03-27T02:03:41.268Z,0
2017-03-27T02:04:51.219Z,0
2017-03-27T02:06:01.491Z,0
2017-03-27T02:07:11.756Z,0
2017-03-27T02:08:22.020Z,0
2017-03-27T02:09:32.286Z,0
2017-03-27T02:10:42.554Z,0
2017-03-27T02:11:52.808Z,0
2017-03-27T02:13:03.071Z,0
2017-03-27T02:14:13.361Z,0
2017-03-27T02:15:23.628Z,0
2017-03-27T02:16:33.574Z,0
2017-03-27T02:17:43.529Z,0
2017-03-27T02:18:53.797Z,0
2017-03-27T02:20:04.062Z,0
2017-03-27T02:21:14.327Z,0
2017-03-27T02:22:24.275Z,0
2017-03-27T02:23:34.538Z,0
2017-03-27T02:24:44.804Z,0
2017-03-27T02:25:55.063Z,0
2017-03-27T02:27:05.008Z,0
2017-03-27T02:28:15.280Z,0
2017-03-27T02:29:25.544Z,0
2017-03-27T02:30:35.496Z,0
2017-03-27T02:31:45.760Z,0
2017-03-27T02:32:56.020Z,0
2017-03-27T02:34:06.280Z,0
2017-03-27T02:35:15.918Z,0
2017-03-27T02:36:26.180Z,0
2017-03-27T02:37:36.440Z,0
2017-03-27T02:38:46.709Z,0
2017-03-27T02:39:56.992Z,0
2017-03-27T02:41:07.254Z,0
2017-03-27T02:42:17.622Z,0
2017-03-27T02:43:27.894Z,0
2017-03-27T02:44:38.161Z,0
2017-03-27T02:45:48.105Z,0
2017-03-27T02:46:58.391Z,0
2017-03-27T02:48:08.661Z,0
2017-03-27T02:49:18.937Z,0
2017-03-27T02:50:28.884Z,0
2017-03-27T02:51:39.143Z,0
2017-03-27T02:52:49.415Z,0
2017-03-27T02:53:59.716Z,0
2017-03-27T02:55:09.982Z,0
2017-03-27T02:56:20.244Z,0
2017-03-27T02:57:30.502Z,0
2017-03-27T02:58:40.758Z,0
2017-03-27T02:59:51.022Z,0
2017-03-27T03:01:01.287Z,0
2017-03-27T03:02:11.546Z,0
2017-03-27T03:03:21.816Z,0
2017-03-27T03:04:32.079Z,0
2017-03-27T03:05:42.348Z,0
2017-03-27T03:06:52.615Z,0
2017-03-27T03:08:02.878Z,0
2017-03-27T03:09:13.146Z,0
2017-03-27T03:10:23.408Z,0
2017-03-27T03:11:33.685Z,0
2017-03-27T03:12:43.961Z,0
2017-03-27T03:13:54.215Z,0
2017-03-27T03:15:04.483Z,0
2017-03-27T03:16:14.454Z,0
2017-03-27T03:17:24.720Z,0
2017-03-27T03:18:34.983Z,0
2017-03-27T03:19:45.244Z,0
2017-03-27T03:20:55.501Z,0
2017-03-27T03:22:05.764Z,0
2017-03-27T03:23:15.710Z,0
2017-03-27T03:24:25.973Z,0
2017-03-27T03:25:36.228Z,0
2017-03-27T03:26:46.482Z,0
2017-03-27T03:27:56.751Z,0
2017-03-27T03:29:07.016Z,0
2017-03-27T03:30:16.965Z,0
2017-03-27T03:31:27.226Z,0
2017-03-27T03:32:37.492Z,0
2017-03-27T03:33:47.756Z,0
2017-03-27T03:34:58.022Z,0
2017-03-27T03:36:07.965Z,0
2017-03-27T03:37:18.219Z,0
2017-03-27T03:38:28.522Z,0
2017-03-27T03:39:38.787Z,0
2017-03-27T03:40:48.737Z,0
2017-03-27T03:41:58.997Z,0
2017-03-27T03:43:08.946Z,0
2017-03-27T03:44:19.216Z,0
2017-03-27T03:45:29.168Z,0
2017-03-27T03:46:39.427Z,0
2017-03-27T03:47:49.690Z,0
2017-03-27T03:48:59.966Z,0
2017-03-27T03:50:09.600Z,0
2017-03-27T03:51:19.545Z,0
2017-03-27T03:52:29.892Z,0
2017-03-27T03:53:40.165Z,0
2017-03-27T03:54:50.435Z,0
2017-03-27T03:56:00.423Z,0
2017-03-27T03:57:10.376Z,0
2017-03-27T03:58:20.351Z,0
2017-03-27T03:59:30.614Z,0
2017-03-27T04:00:40.871Z,0
2017-03-27T04:01:51.133Z,0
2017-03-27T04:03:01.444Z,0
2017-03-27T04:04:11.711Z,0
2017-03-27T04:05:21.967Z,0
2017-03-27T04:06:32.228Z,0
2017-03-27T04:07:42.176Z,0
2017-03-27T04:08:52.458Z,0
2017-03-27T04:10:02.724Z,0
2017-03-27T04:11:12.983Z,0
2017-03-27T04:12:23.254Z,0
2017-03-27T04:13:33.519Z,0
2017-03-27T04:14:43.787Z,0
2017-03-27T04:15:53.422Z,0
2017-03-27T04:17:03.682Z,0
2017-03-27T04:18:13.947Z,0
2017-03-27T04:19:24.222Z,0
2017-03-27T04:20:34.497Z,4
2017-03-27T04:21:44.758Z,4
2017-03-27T04:22:55.021Z,0
2017-03-27T04:24:05.290Z,4
2017-03-27T04:25:15.236Z,4
2017-03-27T04:26:25.181Z,4
2017-03-27T04:27:35.442Z,8
2017-03-27T04:28:45.710Z,4
2017-03-27T04:29:55.983Z,8
2017-03-27T04:31:05.947Z,12
2017-03-27T04:32:16.206Z,12
2017-03-27T04:33:26.506Z,16
2017-03-27T04:34:36.449Z,16
2017-03-27T04:35:46.398Z,16
2017-03-27T04:36:56.032Z,24
2017-03-27T04:38:06.327Z,28
2017-03-27T04:39:15.959Z,32
2017-03-27T04:40:26.212Z,36
2017-03-27T04:41:36.481Z,40
2017-03-27T04:42:46.781Z,48
2017-03-27T04:43:57.048Z,56
2017-03-27T04:45:07.311Z,64
2017-03-27T04:46:17.568Z,72
2017-03-27T04:47:27.861Z,76
2017-03-27T04:48:38.127Z,88
2017-03-27T04:49:48.082Z,100
2017-03-27T04:50:58.341Z,108
2017-03-27T04:52:08.601Z,128
2017-03-27T04:53:18.864Z,148
2017-03-27T04:54:28.814Z,168
2017-03-27T04:55:39.067Z,188
2017-03-27T04:56:49.323Z,204
2017-03-27T04:57:59.594Z,224
2017-03-27T04:59:09.858Z,240
2017-03-27T05:00:20.125Z,252
2017-03-27T05:01:30.386Z,264
2017-03-27T05:02:40.362Z,280
2017-03-27T05:03:50.630Z,296
2017-03-27T05:05:00.894Z,316
2017-03-27T05:06:11.168Z,336
2017-03-27T05:07:21.112Z,364
2017-03-27T05:08:31.378Z,384
2017-03-27T05:09:41.012Z,412
2017-03-27T05:10:51.273Z,432
2017-03-27T05:12:01.216Z,456
2017-03-27T05:13:11.173Z,484
2017-03-27T05:14:21.124Z,500
2017-03-27T05:15:31.382Z,516
2017-03-27T05:16:41.638Z,528
2017-03-27T05:17:51.898Z,544
2017-03-27T05:19:02.171Z,552
2017-03-27T05:20:12.468Z,564
2017-03-27T05:21:22.732Z,584
2017-03-27T05:22:32.996Z,616
2017-03-27T05:23:42.941Z,648
2017-03-27T05:24:52.893Z,676
2017-03-27T05:26:03.164Z,708
2017-03-27T05:27:13.421Z,744
2017-03-27T05:28:23.725Z,780
2017-03-27T05:29:33.990Z,824
2017-03-27T05:30:44.253Z,860
2017-03-27T05:31:54.517Z,900
2017-03-27T05:33:04.784Z,936
2017-03-27T05:34:14.728Z,988
2017-03-27T05:35:24.988Z,1052
2017-03-27T05:36:35.242Z,1116
2017-03-27T05:37:45.505Z,1164
2017-03-27T05:38:55.138Z,1220
2017-03-27T05:40:05.399Z,1268
2017-03-27T05:41:15.344Z,1308
2017-03-27T05:42:25.608Z,1344
2017-03-27T05:43:35.561Z,1376
2017-03-27T05:44:45.508Z,1412
2017-03-27T05:45:55.779Z,1444
2017-03-27T05:47:05.731Z,1492
2017-03-27T05:48:15.999Z,1528
2017-03-27T05:49:25.942Z,1552
2017-03-27T05:50:36.197Z,1568
2017-03-27T05:51:46.139Z,1580
2017-03-27T05:52:56.396Z,1612
2017-03-27T05:54:06.657Z,1644
2017-03-27T05:55:16.605Z,1672
2017-03-27T05:56:26.545Z,1708
2017-03-27T05:57:36.809Z,1748
2017-03-27T05:58:47.078Z,1780
2017-03-27T05:59:57.027Z,1788
2017-03-27T06:01:07.296Z,1788
2017-03-27T06:02:17.247Z,1804
2017-03-27T06:03:27.522Z,1828
2017-03-27T06:04:37.474Z,1864
2017-03-27T06:05:47.734Z,1888
2017-03-27T06:06:57.993Z,1904
2017-03-27T06:08:08.253Z,1932
2017-03-27T06:09:18.550Z,1956
2017-03-27T06:10:28.812Z,2000
2017-03-27T06:11:39.070Z,2072
2017-03-27T06:12:49.340Z,2156
2017-03-27T06:13:59.299Z,2236
2017-03-27T06:15:09.567Z,2284
2017-03-27T06:16:19.836Z,2328
2017-03-27T06:17:29.787Z,2352
2017-03-27T06:18:40.052Z,2376
2017-03-27T06:19:49.683Z,2400
2017-03-27T06:20:59.951Z,2420
2017-03-27T06:22:10.212Z,2464
2017-03-27T06:23:20.160Z,2516
2017-03-27T06:24:30.429Z,2548
2017-03-27T06:25:40.735Z,2576
2017-03-27T06:26:50.677Z,2580
2017-03-27T06:28:00.625Z,2572
2017-03-27T06:29:10.880Z,2556
2017-03-27T06:30:21.139Z,2540
2017-03-27T06:31:30.773Z,2536
2017-03-27T06:32:40.721Z,2548
2017-03-27T06:33:50.679Z,2564
2017-03-27T06:35:00.948Z,2604
2017-03-27T06:36:12.267Z,2592
2017-03-27T06:37:22.531Z,2596
2017-03-27T06:38:32.799Z,2632
2017-03-27T06:39:42.746Z,2588
2017-03-27T06:40:52.700Z,2472
2017-03-27T06:42:02.956Z,2472
2017-03-27T06:43:12.905Z,2448
2017-03-27T06:44:23.177Z,2408
2017-03-27T06:45:33.134Z,2392
2017-03-27T06:46:43.087Z,2348
2017-03-27T06:47:53.041Z,2248
2017-03-27T06:49:03.304Z,2192
2017-03-27T06:50:13.565Z,2172
2017-03-27T06:51:23.827Z,2192
2017-03-27T06:52:34.086Z,2188
2017-03-27T06:53:44.362Z,2196
2017-03-27T06:54:54.628Z,2200
2017-03-27T06:56:04.891Z,2152
2017-03-27T06:57:14.842Z,2176
2017-03-27T06:58:24.485Z,2272
2017-03-27T06:59:34.757Z,2288
2017-03-27T07:00:44.702Z,2272
2017-03-27T07:01:54.968Z,2332
2017-03-27T07:03:05.277Z,2416
2017-03-27T07:04:15.542Z,2476
2017-03-27T07:05:25.516Z,2476
2017-03-27T07:06:35.480Z,2552
2017-03-27T07:07:45.745Z,2572
2017-03-27T07:08:56.013Z,2620
2017-03-27T07:10:06.275Z,2656
2017-03-27T07:11:16.537Z,2660
2017-03-27T07:12:26.182Z,2672
2017-03-27T07:13:36.135Z,2640
2017-03-27T07:14:46.399Z,2580
2017-03-27T07:15:56.659Z,2456
2017-03-27T07:17:06.607Z,2448
2017-03-27T07:18:16.579Z,2444
2017-03-27T07:19:26.534Z,2432
2017-03-27T07:20:36.483Z,2440
2017-03-27T07:21:46.431Z,2460
2017-03-27T07:22:56.701Z,2484
2017-03-27T07:24:06.975Z,2524
2017-03-27T07:25:17.241Z,2568
2017-03-27T07:26:27.184Z,2572
2017-03-27T07:27:37.449Z,2616
2017-03-27T07:28:47.721Z,2668
2017-03-27T07:29:57.987Z,2696
2017-03-27T07:31:07.929Z,2720
2017-03-27T07:32:18.196Z,2688
2017-03-27T07:33:28.466Z,2680
2017-03-27T07:34:38.731Z,2700
2017-03-27T07:35:48.986Z,2728
2017-03-27T07:36:59.249Z,2748
2017-03-27T07:38:09.513Z,2772
2017-03-27T07:39:19.777Z,2852
2017-03-27T07:40:29.726Z,2956
2017-03-27T07:41:40.022Z,3036
2017-03-27T07:42:50.279Z,3144
2017-03-27T07:44:00.547Z,3144
2017-03-27T07:45:10.493Z,3152
2017-03-27T07:46:20.751Z,3220
2017-03-27T07:47:31.013Z,3264
2017-03-27T07:48:41.285Z,3300
2017-03-27T07:49:51.581Z,3292
2017-03-27T07:51:01.867Z,3268
2017-03-27T07:52:13.939Z,3252
2017-03-27T07:53:24.201Z,3224
2017-03-27T07:54:34.157Z,3200
2017-03-27T07:55:44.427Z,3216
2017-03-27T07:56:54.372Z,3228
2017-03-27T07:58:04.649Z,3236
2017-03-27T07:59:14.916Z,3240
2017-03-27T08:00:24.548Z,3248
2017-03-27T08:01:34.807Z,3264
2017-03-27T08:02:45.078Z,3272
2017-03-27T08:03:55.375Z,3284
2017-03-27T08:05:05.328Z,3292
2017-03-27T08:06:15.590Z,3300
2017-03-27T08:07:25.851Z,3312
2017-03-27T08:08:35.803Z,3332
2017-03-27T08:09:45.751Z,3348
2017-03-27T08:10:56.030Z,3364
2017-03-27T08:12:05.980Z,3380
2017-03-27T08:13:16.244Z,3396
2017-03-27T08:14:26.198Z,3408
2017-03-27T08:15:35.828Z,3424
2017-03-27T08:16:45.786Z,3436
2017-03-27T08:17:56.052Z,3452
2017-03-27T08:19:06.322Z,3468
2017-03-27T08:20:16.616Z,3480
2017-03-27T08:21:26.877Z,3496
2017-03-27T08:22:36.833Z,3512
2017-03-27T08:23:46.790Z,3532
2017-03-27T08:24:56.430Z,3548
2017-03-27T08:26:06.694Z,3564
2017-03-27T08:27:16.963Z,3580
2017-03-27T08:28:27.242Z,3592
2017-03-27T08:29:37.261Z,3604
2017-03-27T08:30:47.258Z,3616
2017-03-27T08:31:57.550Z,3632
2017-03-27T08:33:07.814Z,3644
2017-03-27T08:34:17.794Z,3656
2017-03-27T08:35:27.750Z,3668
2017-03-27T08:36:37.774Z,3680
2017-03-27T08:37:47.738Z,3696
2017-03-27T08:38:58.007Z,3708
2017-03-27T08:40:07.962Z,3728
2017-03-27T08:41:18.224Z,3744
2017-03-27T08:42:28.493Z,3776
2017-03-27T08:43:38.762Z,3796
2017-03-27T08:44:49.025Z,3820
2017-03-27T08:45:59.315Z,3848
2017-03-27T08:47:08.951Z,3888
2017-03-27T08:48:19.241Z,3924
2017-03-27T08:49:29.507Z,3964
2017-03-27T08:50:39.852Z,4028
2017-03-27T08:51:49.488Z,4116
2017-03-27T08:52:59.769Z,4192
2017-03-27T08:54:10.042Z,4240
2017-03-27T08:55:19.677Z,4276
2017-03-27T08:56:29.941Z,4208
2017-03-27T08:57:39.888Z,4132
2017-03-27T08:58:50.163Z,4020
2017-03-27T09:00:00.447Z,4020
2017-03-27T09:01:10.704Z,4172
2017-03-27T09:02:20.970Z,4352
2017-03-27T09:03:30.602Z,4524
2017-03-27T09:04:40.563Z,4652
2017-03-27T09:05:50.816Z,4700
2017-03-27T09:07:00.761Z,4716
2017-03-27T09:08:10.396Z,4852
2017-03-27T09:09:20.661Z,4872
2017-03-27T09:10:30.934Z,4936
2017-03-27T09:11:40.882Z,4964
2017-03-27T09:12:51.139Z,4940
2017-03-27T09:14:01.401Z,4920
2017-03-27T09:15:11.668Z,4892
2017-03-27T09:16:21.952Z,4772
2017-03-27T09:17:32.213Z,4716
2017-03-27T09:18:42.188Z,4704
2017-03-27T09:19:52.453Z,4512
2017-03-27T09:21:02.711Z,4292
2017-03-27T09:22:12.035Z,4280
2017-03-27T09:23:22.298Z,4304
2017-03-27T09:24:32.569Z,4228
2017-03-27T09:25:42.524Z,4336
2017-03-27T09:26:52.473Z,4356
2017-03-27T09:28:02.743Z,4624
2017-03-27T09:29:13.048Z,4736
2017-03-27T09:30:23.315Z,4956
2017-03-27T09:31:33.573Z,5044
2017-03-27T09:32:43.838Z,5136
2017-03-27T09:33:54.113Z,5084
2017-03-27T09:35:04.383Z,5048
2017-03-27T09:36:14.642Z,4712
2017-03-27T09:37:24.591Z,4316
2017-03-27T09:38:34.863Z,4208
2017-03-27T09:39:45.138Z,4312
2017-03-27T09:40:55.097Z,4408
2017-03-27T09:42:04.737Z,4820
2017-03-27T09:43:14.696Z,4716
2017-03-27T09:44:24.655Z,4776
2017-03-27T09:45:34.927Z,4888
2017-03-27T09:46:44.890Z,4972
2017-03-27T09:47:55.163Z,5064
2017-03-27T09:49:05.114Z,5144
2017-03-27T09:50:15.378Z,5292
2017-03-27T09:51:24.696Z,5416
2017-03-27T09:52:34.962Z,5392
2017-03-27T09:53:45.239Z,5200
2017-03-27T09:54:55.515Z,4956
2017-03-27T09:56:05.472Z,5184
2017-03-27T09:57:15.752Z,5332
2017-03-27T09:58:26.026Z,5408
2017-03-27T09:59:35.981Z,5496
2017-03-27T10:00:45.929Z,5380
2017-03-27T10:01:55.876Z,5292
2017-03-27T10:03:06.163Z,5192
2017-03-27T10:04:16.451Z,5192
2017-03-27T10:05:26.711Z,5172
2017-03-27T10:06:36.680Z,5160
2017-03-27T10:07:46.641Z,5200
2017-03-27T10:08:56.911Z,5240
2017-03-27T10:10:07.189Z,5212
2017-03-27T10:11:17.140Z,5164
2017-03-27T10:12:27.405Z,5132
2017-03-27T10:13:37.367Z,5184
2017-03-27T10:14:47.317Z,5232
2017-03-27T10:15:57.266Z,5228
2017-03-27T10:17:07.541Z,5236
2017-03-27T10:18:17.850Z,5240
2017-03-27T10:19:27.812Z,5268
2017-03-27T10:20:38.070Z,5216
2017-03-27T10:21:48.023Z,5076
2017-03-27T10:22:57.978Z,4996
2017-03-27T10:24:08.250Z,5048
2017-03-27T10:25:18.520Z,5160
2017-03-27T10:26:28.788Z,5156
2017-03-27T10:27:38.745Z,5136
2017-03-27T10:28:48.705Z,5004
2017-03-27T10:29:58.031Z,4980
2017-03-27T10:31:07.985Z,4972
2017-03-27T10:32:18.255Z,4976
2017-03-27T10:33:28.527Z,4972
2017-03-27T10:34:38.796Z,4980
2017-03-27T10:35:49.060Z,5000
2017-03-27T10:36:59.328Z,5008
2017-03-27T10:38:09.625Z,5012
2017-03-27T10:39:19.578Z,5040
2017-03-27T10:40:29.846Z,5048
2017-03-27T10:41:39.801Z,5060
2017-03-27T10:42:49.761Z,5072
2017-03-27T10:43:59.720Z,5076
2017-03-27T10:45:09.990Z,5092
2017-03-27T10:46:20.252Z,5108
2017-03-27T10:47:30.204Z,5108
2017-03-27T10:48:40.477Z,5104
2017-03-27T10:49:50.442Z,5092
2017-03-27T10:51:00.709Z,5080
2017-03-27T10:52:10.663Z,5080
2017-03-27T10:53:20.928Z,5068
2017-03-27T10:54:30.888Z,5064
2017-03-27T10:55:40.843Z,5056
2017-03-27T10:56:50.785Z,5056
2017-03-27T10:58:01.066Z,5060
2017-03-27T10:59:11.026Z,5052
2017-03-27T11:00:21.297Z,5080
2017-03-27T11:01:31.561Z,5096
2017-03-27T11:02:41.826Z,5132
2017-03-27T11:03:52.094Z,5152
2017-03-27T11:05:02.354Z,5156
2017-03-27T11:06:12.620Z,5160
2017-03-27T11:07:22.596Z,5164
2017-03-27T11:08:32.871Z,5176
2017-03-27T11:09:43.152Z,5224
2017-03-27T11:10:52.797Z,5304
2017-03-27T11:12:03.072Z,5372
2017-03-27T11:13:13.030Z,5636
2017-03-27T11:14:23.304Z,6584
2017-03-27T11:15:33.263Z,31072
2017-03-27T11:16:43.530Z,49664
2017-03-27T11:17:53.487Z,48992
2017-03-27T11:19:03.766Z,52128
2017-03-27T11:20:13.723Z,48832
2017-03-27T11:21:23.729Z,47520
2017-03-27T11:22:34.004Z,51488
2017-03-27T11:23:44.281Z,51872
2017-03-27T11:24:54.237Z,50720
2017-03-27T11:26:04.516Z,50368
2017-03-27T11:27:14.170Z,48000
2017-03-27T11:28:24.447Z,46624
2017-03-27T11:29:34.403Z,48992
2017-03-27T11:30:44.366Z,50592
2017-03-27T11:31:54.327Z,51648
2017-03-27T11:33:04.604Z,53216
2017-03-27T11:34:15.030Z,49792
2017-03-27T11:35:24.691Z,54720
2017-03-27T11:36:34.970Z,55136
2017-03-27T11:37:45.256Z,54304
2017-03-27T11:38:55.535Z,54272
2017-03-27T11:40:07.815Z,55040
2017-03-27T11:41:18.092Z,53568
2017-03-27T11:42:28.364Z,56256
2017-03-27T11:43:38.650Z,55648
2017-03-27T11:44:48.313Z,54080
2017-03-27T11:45:58.299Z,54048
2017-03-27T11:47:07.969Z,53376
2017-03-27T11:48:17.661Z,55168
2017-03-27T11:49:27.342Z,50080
2017-03-27T11:50:37.337Z,54080
2017-03-27T11:51:47.011Z,53728
2017-03-27T11:52:56.991Z,53152
2017-03-27T11:54:06.668Z,52576
2017-03-27T11:55:16.321Z,49600
2017-03-27T11:56:26.287Z,50112
2017-03-27T11:57:35.625Z,49600
2017-03-27T11:58:45.289Z,49152
2017-03-27T11:59:54.639Z,49504
2017-03-27T12:01:04.324Z,48928
2017-03-27T12:02:14.357Z,47168
2017-03-27T12:03:24.686Z,47136
2017-03-27T12:04:34.705Z,46400
2017-03-27T12:05:45.005Z,43872
2017-03-27T12:06:54.670Z,45792
2017-03-27T12:08:04.955Z,48448
2017-03-27T12:09:14.921Z,45600
2017-03-27T12:10:24.898Z,44256
2017-03-27T12:11:34.860Z,45824
2017-03-27T12:12:44.829Z,52928
2017-03-27T12:13:54.796Z,54144
2017-03-27T12:15:04.757Z,52832
2017-03-27T12:16:14.410Z,53664
2017-03-27T12:17:24.375Z,54432
2017-03-27T12:18:34.659Z,55936
2017-03-27T12:19:44.644Z,53664
2017-03-27T12:20:53.981Z,52128
2017-03-27T12:22:03.952Z,52320
2017-03-27T12:23:13.605Z,53536
2017-03-27T12:24:23.890Z,52256
2017-03-27T12:25:33.881Z,55072
2017-03-27T12:26:43.218Z,55616
2017-03-27T12:27:52.882Z,57504
2017-03-27T12:29:03.208Z,54336
2017-03-27T12:30:13.506Z,54400
2017-03-27T12:31:23.492Z,54048
2017-03-27T12:32:33.139Z,51776
2017-03-27T12:33:42.475Z,49664
2017-03-27T12:34:52.467Z,48224
2017-03-27T12:36:02.780Z,47008
2017-03-27T12:37:12.781Z,46112
2017-03-27T12:38:22.769Z,44736
2017-03-27T12:39:33.054Z,44480
2017-03-27T12:40:43.058Z,40128
2017-03-27T12:41:53.046Z,39392
2017-03-27T12:43:03.337Z,37376
2017-03-27T12:44:12.989Z,35200
2017-03-27T12:45:22.333Z,39392
2017-03-27T12:46:32.028Z,37760
2017-03-27T12:47:41.684Z,37408
2017-03-27T12:48:51.026Z,36896
2017-03-27T12:50:01.036Z,35776
2017-03-27T12:51:10.709Z,36416
2017-03-27T12:52:20.693Z,35424
2017-03-27T12:53:30.705Z,34848
2017-03-27T12:54:41.021Z,34496
2017-03-27T12:55:51.010Z,34720
2017-03-27T12:57:00.684Z,36096
2017-03-27T12:58:10.707Z,34240
2017-03-27T12:59:20.736Z,37184
2017-03-27T13:00:30.426Z,39008
2017-03-27T13:01:40.731Z,39232
2017-03-27T13:02:51.038Z,40448
2017-03-27T13:04:01.326Z,40576
2017-03-27T13:05:11.294Z,41152
2017-03-27T13:06:21.575Z,40544
2017-03-27T13:07:31.562Z,41248
2017-03-27T13:08:41.847Z,39104
2017-03-27T13:09:52.130Z,37792
2017-03-27T13:11:02.416Z,37504
2017-03-27T13:12:12.398Z,38112
2017-03-27T13:13:22.364Z,39392
2017-03-27T13:14:32.330Z,41696
2017-03-27T13:15:42.612Z,45184
2017-03-27T13:16:52.940Z,47520
2017-03-27T13:18:02.911Z,50528
2017-03-27T13:19:11.620Z,47872
2017-03-27T13:20:21.617Z,41664
2017-03-27T13:21:30.954Z,47872
2017-03-27T13:22:40.615Z,50848
2017-03-27T13:23:50.603Z,53408
2017-03-27T13:25:00.910Z,40928
2017-03-27T13:26:10.554Z,46784
2017-03-27T13:27:20.836Z,53568
2017-03-27T13:28:31.137Z,39296
2017-03-27T13:29:41.114Z,35936
2017-03-27T13:30:51.426Z,37728
2017-03-27T13:32:01.386Z,39072
2017-03-27T13:33:11.658Z,28896
2017-03-27T13:34:21.628Z,30240
2017-03-27T13:35:31.904Z,27584
2017-03-27T13:36:41.870Z,31616
2017-03-27T13:37:52.153Z,34016
2017-03-27T13:39:02.438Z,43872
2017-03-27T13:40:12.406Z,49760
2017-03-27T13:41:22.677Z,31360
2017-03-27T13:42:32.965Z,25696
2017-03-27T13:43:43.252Z,19840
2017-03-27T13:44:53.235Z,23968
2017-03-27T13:46:03.194Z,32896
2017-03-27T13:47:13.468Z,26080
2017-03-27T13:48:23.751Z,30560
2017-03-27T13:49:34.023Z,32800
2017-03-27T13:50:43.990Z,24192
2017-03-27T13:51:54.256Z,24096
2017-03-27T13:53:04.529Z,19104
2017-03-27T13:54:14.801Z,21376
2017-03-27T13:55:24.757Z,20992
2017-03-27T13:56:35.023Z,25280
2017-03-27T13:57:45.292Z,33696
2017-03-27T13:58:55.270Z,28032
2017-03-27T14:00:05.224Z,32000
2017-03-27T14:01:15.178Z,36992
2017-03-27T14:02:24.824Z,21920
2017-03-27T14:03:35.094Z,25056
2017-03-27T14:04:45.367Z,23488
2017-03-27T14:05:55.647Z,19264
2017-03-27T14:07:05.610Z,24448
2017-03-27T14:08:15.570Z,16320
2017-03-27T14:09:25.856Z,18336
2017-03-27T14:10:35.836Z,19840
2017-03-27T14:11:46.107Z,23072
2017-03-27T14:12:56.378Z,27776
2017-03-27T14:14:06.657Z,39296
2017-03-27T14:15:16.924Z,37088
2017-03-27T14:16:27.190Z,41280
2017-03-27T14:17:37.456Z,44480
2017-03-27T14:18:47.412Z,43872
2017-03-27T14:19:57.378Z,45280
2017-03-27T14:21:07.657Z,39392
2017-03-27T14:22:17.926Z,39424
2017-03-27T14:23:28.207Z,46688
2017-03-27T14:24:38.477Z,43776
2017-03-27T14:25:48.751Z,45888
2017-03-27T14:26:59.028Z,47680
2017-03-27T14:28:08.992Z,49312
2017-03-27T14:29:19.260Z,51040
2017-03-27T14:30:29.531Z,35264
2017-03-27T14:31:39.807Z,47680
2017-03-27T14:32:49.762Z,46720
2017-03-27T14:33:59.716Z,39712
2017-03-27T14:35:09.668Z,44032
2017-03-27T14:36:19.628Z,58656
2017-03-27T14:37:29.593Z,56896
2017-03-27T14:38:39.873Z,49472
2017-03-27T14:39:50.154Z,48768
2017-03-27T14:41:00.426Z,53056
2017-03-27T14:42:10.699Z,59520
2017-03-27T14:43:20.973Z,56864
2017-03-27T14:44:31.251Z,57120
2017-03-27T14:45:41.216Z,56000
2017-03-27T14:46:51.182Z,55648
2017-03-27T14:48:01.462Z,58080
2017-03-27T14:49:11.744Z,56128
2017-03-27T14:50:21.712Z,55904
2017-03-27T14:51:31.988Z,51648
2017-03-27T14:52:42.271Z,29920
2017-03-27T14:53:52.271Z,45984
2017-03-27T14:55:01.926Z,54112
2017-03-27T14:56:11.580Z,53760
2017-03-27T14:57:21.547Z,54656
2017-03-27T14:58:31.835Z,54048
2017-03-27T14:59:41.491Z,51552
2017-03-27T15:00:51.797Z,52416
2017-03-27T15:02:01.461Z,52640
2017-03-27T15:03:11.112Z,52448
2017-03-27T15:04:21.397Z,52384
2017-03-27T15:05:31.683Z,52448
2017-03-27T15:06:41.959Z,51872
2017-03-27T15:07:51.929Z,50720
2017-03-27T15:09:01.895Z,50912
2017-03-27T15:10:11.240Z,51584
2017-03-27T15:11:21.207Z,50912
2017-03-27T15:12:31.494Z,49824
2017-03-27T15:13:41.791Z,50816
2017-03-27T15:14:52.081Z,48256
2017-03-27T15:16:02.051Z,45568
2017-03-27T15:17:12.021Z,43584
2017-03-27T15:18:22.331Z,42080
2017-03-27T15:19:32.617Z,42720
2017-03-27T15:20:42.272Z,44288
2017-03-27T15:21:52.552Z,47840
2017-03-27T15:23:02.210Z,47040
2017-03-27T15:24:12.500Z,43520
2017-03-27T15:25:22.469Z,42304
2017-03-27T15:26:32.747Z,40832
2017-03-27T15:27:43.032Z,37856
2017-03-27T15:28:53.314Z,36288
2017-03-27T15:30:03.297Z,39488
2017-03-27T15:31:13.259Z,42560
2017-03-27T15:32:23.545Z,44608
2017-03-27T15:33:33.514Z,42496
2017-03-27T15:34:43.796Z,39232
2017-03-27T15:35:54.079Z,32992
2017-03-27T15:37:04.043Z,33504
2017-03-27T15:38:14.332Z,30752
2017-03-27T15:39:24.304Z,28480
2017-03-27T15:40:34.586Z,25984
2017-03-27T15:41:44.856Z,25888
2017-03-27T15:42:55.129Z,19968
2017-03-27T15:44:05.157Z,19232
2017-03-27T15:45:15.125Z,21536
2017-03-27T15:46:25.395Z,23424
2017-03-27T15:47:35.674Z,20512
2017-03-27T15:48:45.964Z,21248
2017-03-27T15:49:56.245Z,19520
2017-03-27T15:51:06.520Z,14192
2017-03-27T15:52:16.822Z,14432
2017-03-27T15:53:27.102Z,15360